Time;durP1;ratioP1;P1;durP2;ratioP2;P2;SDS_P1;SDS_P2;PMS_P1;PMS_P2;Temp;Humidity;BMP_temperature;BMP_pressure;BME280_temperature;BME280_humidity;BME280_pressure;Samples;Min_cycle;Max_cycle;Signal;HPM_P1;HPM_P2
2022/04/05 00:00:14;;;;;;;2.67;2.08;;;22.70;30.50;;;;;;6113332;28;80491;-74
2022/04/05 00:03:15;;;;;;;3.17;2.63;;;22.70;30.40;;;;;;6113974;28;81043;-71
2022/04/05 00:06:16;;;;;;;4.15;2.50;;;22.70;30.40;;;;;;6113436;28;80805;-71
2022/04/05 00:09:16;;;;;;;4.32;2.70;;;22.70;30.30;;;;;;6113239;28;80651;-70
2022/04/05 00:12:20;;;;;;;2.25;2.05;;;22.70;30.30;;;;;;6113202;28;82049;-71
2022/04/05 00:15:20;;;;;;;4.78;2.97;;;22.70;30.50;;;;;;6113491;28;81566;-73
2022/04/05 00:18:21;;;;;;;6.20;2.50;;;22.70;30.80;;;;;;6113286;28;80369;-73
2022/04/05 00:21:21;;;;;;;2.47;2.28;;;22.70;30.60;;;;;;6114044;28;80716;-73
2022/04/05 00:24:22;;;;;;;2.47;2.25;;;22.60;30.40;;;;;;6113659;28;80390;-73
2022/04/05 00:27:22;;;;;;;3.00;2.53;;;22.70;30.60;;;;;;6113685;28;80598;-73
2022/04/05 00:30:23;;;;;;;2.67;2.45;;;22.70;30.90;;;;;;6111575;28;83243;-73
2022/04/05 00:33:24;;;;;;;3.33;2.60;;;22.70;30.90;;;;;;6113186;28;80444;-72
2022/04/05 00:36:24;;;;;;;3.10;1.95;;;22.60;30.60;;;;;;6113009;28;81502;-73
2022/04/05 00:39:26;;;;;;;2.63;2.20;;;22.60;30.60;;;;;;6112947;28;80627;-72
2022/04/05 00:42:27;;;;;;;2.45;2.05;;;22.60;30.70;;;;;;6116353;28;80203;-72
2022/04/05 00:45:28;;;;;;;2.85;2.30;;;22.60;31.00;;;;;;6107172;28;80484;-72
2022/04/05 00:48:28;;;;;;;3.53;2.75;;;22.60;30.80;;;;;;6112772;28;81415;-73
2022/04/05 00:51:29;;;;;;;3.33;2.50;;;22.60;30.70;;;;;;6112568;28;80424;-73
2022/04/05 00:54:29;;;;;;;2.47;2.10;;;22.60;31.10;;;;;;6112773;28;80592;-72
2022/04/05 00:57:30;;;;;;;2.38;2.10;;;22.60;31.40;;;;;;6112107;28;80215;-71
2022/04/05 01:00:30;;;;;;;2.33;2.13;;;22.60;31.10;;;;;;6112585;28;80195;-72
2022/04/05 01:03:31;;;;;;;2.55;2.05;;;22.60;31.10;;;;;;6118979;28;81716;-72
2022/04/05 01:06:31;;;;;;;4.68;2.17;;;22.60;31.20;;;;;;6126888;28;80581;-72
2022/04/05 01:09:32;;;;;;;2.67;2.10;;;22.60;31.50;;;;;;6112338;28;80482;-71
2022/04/05 01:12:32;;;;;;;3.00;2.33;;;22.50;31.10;;;;;;6112242;28;80572;-72
2022/04/05 01:15:33;;;;;;;8.10;2.50;;;22.50;31.30;;;;;;6112688;28;80385;-72
2022/04/05 01:18:34;;;;;;;3.47;2.53;;;22.50;31.40;;;;;;6112570;28;80409;-73
2022/04/05 01:21:34;;;;;;;2.72;2.25;;;22.50;31.40;;;;;;6112321;28;80571;-73
2022/04/05 01:24:35;;;;;;;1.95;1.83;;;22.50;31.40;;;;;;6112515;28;80390;-74
2022/04/05 01:27:35;;;;;;;2.55;2.17;;;22.50;31.20;;;;;;6102354;28;81676;-71
2022/04/05 01:30:36;;;;;;;4.40;2.40;;;22.60;31.30;;;;;;6090467;28;80845;-72
2022/04/05 01:33:36;;;;;;;2.78;1.98;;;22.50;31.10;;;;;;6111901;28;80306;-73
2022/04/05 01:36:37;;;;;;;1.85;1.65;;;22.50;31.20;;;;;;6111872;28;80574;-72
2022/04/05 01:39:37;;;;;;;2.55;2.20;;;22.50;31.10;;;;;;6112544;28;80491;-71
2022/04/05 01:42:38;;;;;;;2.70;2.25;;;22.50;31.10;;;;;;6110755;28;80357;-70
2022/04/05 01:45:38;;;;;;;2.38;2.10;;;22.50;31.20;;;;;;6116657;28;80454;-71
2022/04/05 01:48:39;;;;;;;2.20;2.00;;;22.50;31.40;;;;;;6108338;28;80824;-71
2022/04/05 01:51:40;;;;;;;2.45;2.25;;;22.50;31.40;;;;;;6111328;28;80690;-71
2022/04/05 01:54:40;;;;;;;2.78;2.05;;;22.60;31.50;;;;;;6110796;28;80376;-70
2022/04/05 01:57:41;;;;;;;2.25;1.52;;;22.60;31.50;;;;;;6111606;28;80769;-71
2022/04/05 02:00:41;;;;;;;2.50;1.98;;;22.60;31.50;;;;;;6111976;28;80858;-72
2022/04/05 02:03:42;;;;;;;6.28;2.10;;;22.50;31.40;;;;;;6111829;28;80345;-72
2022/04/05 02:06:43;;;;;;;2.03;1.73;;;22.50;31.50;;;;;;6110391;28;82128;-71
2022/04/05 02:09:43;;;;;;;2.42;1.95;;;22.50;31.60;;;;;;6101950;28;83850;-71
2022/04/05 02:12:45;;;;;;;1.98;1.77;;;22.60;31.70;;;;;;6111392;28;82125;-72
2022/04/05 02:16:11;;;;;;;1.98;1.80;;;22.60;31.80;;;;;;6109485;28;85814;-72
2022/04/05 02:19:12;;;;;;;3.17;1.90;;;22.60;31.90;;;;;;6111731;28;80723;-73
2022/04/05 02:22:16;;;;;;;2.55;1.80;;;22.50;32.00;;;;;;6109890;28;82606;-72
2022/04/05 02:25:17;;;;;;;1.67;1.58;;;22.60;32.40;;;;;;6109818;28;83246;-72
2022/04/05 02:28:18;;;;;;;2.20;1.75;;;22.50;31.90;;;;;;6109780;28;81533;-72
2022/04/05 02:31:25;;;;;;;1.90;1.70;;;22.50;32.10;;;;;;6109856;28;81514;-73
2022/04/05 02:34:27;;;;;;;3.88;1.63;;;22.50;32.10;;;;;;6110212;28;83089;-72
2022/04/05 02:37:33;;;;;;;1.80;1.67;;;22.50;32.20;;;;;;6093465;28;82427;-71
2022/04/05 02:40:34;;;;;;;3.28;1.98;;;22.50;32.20;;;;;;6109873;28;82905;-71
2022/04/05 02:43:35;;;;;;;1.73;1.60;;;22.50;32.10;;;;;;6109495;28;82941;-71
2022/04/05 02:46:36;;;;;;;1.85;1.58;;;22.50;32.00;;;;;;6109511;28;82730;-71
2022/04/05 02:49:37;;;;;;;1.73;1.50;;;22.50;32.20;;;;;;6110825;28;80824;-71
2022/04/05 02:52:43;;;;;;;2.50;1.70;;;22.50;32.30;;;;;;6104032;28;82926;-73
2022/04/05 02:55:43;;;;;;;2.10;1.90;;;22.50;32.30;;;;;;6109638;28;82892;-71
2022/04/05 02:58:47;;;;;;;3.55;1.48;;;22.50;32.20;;;;;;6108942;28;83278;-71
2022/04/05 03:01:50;;;;;;;2.00;1.50;;;22.50;32.50;;;;;;6096261;28;81865;-72
2022/04/05 03:04:54;;;;;;;2.70;1.63;;;22.50;32.40;;;;;;6113516;28;81306;-71
2022/04/05 03:07:55;;;;;;;1.85;1.60;;;22.50;32.70;;;;;;6106859;28;83197;-73
2022/04/05 03:10:56;;;;;;;1.73;1.52;;;22.40;32.50;;;;;;6112668;28;81533;-70
2022/04/05 03:13:59;;;;;;;1.60;1.50;;;22.50;32.60;;;;;;6113275;28;81716;-71
2022/04/05 03:17:02;;;;;;;1.92;1.30;;;22.50;32.20;;;;;;6113689;28;83100;-71
2022/04/05 03:20:03;;;;;;;1.60;1.35;;;22.60;32.40;;;;;;6105694;28;83386;-72
2022/04/05 03:23:04;;;;;;;2.15;1.23;;;22.60;32.20;;;;;;6090952;28;80474;-71
2022/04/05 03:26:05;;;;;;;1.50;1.40;;;22.70;32.30;;;;;;6090976;28;81534;-72
2022/04/05 03:29:06;;;;;;;1.95;1.63;;;22.70;32.20;;;;;;6096615;28;81608;-73
2022/04/05 03:32:08;;;;;;;2.92;1.60;;;22.80;32.30;;;;;;6112940;28;83077;-74
2022/04/05 03:35:10;;;;;;;1.77;1.50;;;22.80;32.30;;;;;;6112775;28;82599;-72
2022/04/05 03:38:12;;;;;;;1.48;1.38;;;22.80;32.20;;;;;;6113748;28;82641;-72
2022/04/05 03:41:13;;;;;;;2.15;1.65;;;22.90;32.30;;;;;;6112862;28;82794;-75
2022/04/05 03:44:17;;;;;;;1.80;1.35;;;22.90;32.30;;;;;;6111318;28;83208;-72
2022/04/05 03:47:21;;;;;;;1.40;1.30;;;22.90;32.90;;;;;;6113043;28;83437;-72
2022/04/05 03:50:22;;;;;;;1.55;1.23;;;23.00;32.20;;;;;;6112714;28;82899;-72
2022/04/05 03:53:23;;;;;;;1.25;1.15;;;23.00;32.20;;;;;;6112815;28;81477;-76
2022/04/05 03:56:24;;;;;;;1.58;1.40;;;23.00;32.80;;;;;;6113056;28;82867;-72
2022/04/05 03:59:29;;;;;;;1.60;1.50;;;23.00;32.10;;;;;;6111543;28;82429;-66
2022/04/05 04:02:34;;;;;;;1.75;1.20;;;23.00;32.20;;;;;;6113090;28;80788;-67
2022/04/05 04:05:35;;;;;;;1.40;1.30;;;23.00;32.70;;;;;;6111754;28;83776;-66
2022/04/05 04:08:37;;;;;;;1.70;1.15;;;23.10;32.40;;;;;;6112214;28;83583;-65
2022/04/05 04:11:41;;;;;;;2.28;1.30;;;23.10;32.50;;;;;;6111468;28;83318;-65
2022/04/05 04:14:43;;;;;;;3.20;1.30;;;23.20;32.90;;;;;;6111392;28;81680;-66
2022/04/05 04:17:52;;;;;;;3.13;1.10;;;23.20;33.10;;;;;;6112065;28;83340;-67
2022/04/05 04:20:54;;;;;;;2.97;1.13;;;23.20;33.20;;;;;;6111616;28;81859;-65
2022/04/05 04:23:55;;;;;;;2.88;1.50;;;23.20;33.20;;;;;;6111500;28;83269;-65
2022/04/05 04:26:56;;;;;;;3.25;1.27;;;23.20;33.10;;;;;;6111356;28;82380;-69
2022/04/05 04:29:57;;;;;;;2.97;1.20;;;23.20;33.00;;;;;;6094337;28;80855;-67
2022/04/05 04:32:57;;;;;;;1.58;1.10;;;23.20;32.90;;;;;;6089253;28;80225;-67
2022/04/05 04:35:58;;;;;;;0.90;0.90;;;23.20;32.80;;;;;;6092884;28;82076;-67
2022/04/05 04:38:58;;;;;;;1.10;0.98;;;23.20;32.70;;;;;;6089086;28;81592;-67
2022/04/05 04:41:59;;;;;;;1.55;1.05;;;23.20;32.80;;;;;;6089322;28;81440;-70
2022/04/05 04:44:59;;;;;;;1.10;1.00;;;23.20;33.00;;;;;;6112341;28;81410;-72
2022/04/05 04:48:00;;;;;;;1.13;1.02;;;23.30;33.20;;;;;;6105127;28;80332;-66
2022/04/05 04:51:00;;;;;;;10.80;1.55;;;23.30;33.30;;;;;;6108487;28;80732;-69
2022/04/05 04:54:01;;;;;;;3.92;1.30;;;23.30;33.90;;;;;;6112106;28;80418;-69
2022/04/05 04:57:02;;;;;;;0.95;0.90;;;23.40;33.80;;;;;;6097234;28;80285;-71
2022/04/05 05:00:02;;;;;;;3.75;1.00;;;23.40;34.60;;;;;;6108311;28;81697;-70
2022/04/05 05:03:03;;;;;;;0.98;0.98;;;23.40;33.90;;;;;;6113209;28;81078;-70
2022/04/05 05:06:04;;;;;;;0.98;0.90;;;23.40;34.20;;;;;;6112711;28;80015;-69
2022/04/05 05:09:05;;;;;;;3.28;1.33;;;23.40;34.30;;;;;;6112743;28;81069;-69
2022/04/05 05:12:06;;;;;;;1.13;1.02;;;23.40;34.30;;;;;;6123668;28;81532;-68
2022/04/05 05:15:06;;;;;;;1.17;1.08;;;23.40;34.30;;;;;;6112418;28;81465;-68
2022/04/05 05:18:07;;;;;;;1.67;1.10;;;23.40;34.40;;;;;;6103851;28;80405;-69
2022/04/05 05:21:07;;;;;;;1.48;1.10;;;23.40;34.40;;;;;;6111379;28;80411;-68
2022/04/05 05:24:08;;;;;;;1.90;1.30;;;23.40;34.20;;;;;;6117079;28;81065;-75
2022/04/05 05:27:08;;;;;;;4.28;1.10;;;23.40;34.20;;;;;;6117330;28;80379;-69
2022/04/05 05:30:09;;;;;;;2.92;1.10;;;23.40;34.20;;;;;;6108678;28;80443;-69
2022/04/05 05:33:09;;;;;;;2.15;1.30;;;23.40;34.50;;;;;;6094141;28;80297;-69
2022/04/05 05:36:10;;;;;;;1.05;0.95;;;23.40;34.60;;;;;;6091237;28;80859;-68
2022/04/05 05:39:11;;;;;;;1.05;1.00;;;23.40;34.70;;;;;;6088237;28;80385;-68
2022/04/05 05:42:11;;;;;;;1.10;1.00;;;23.40;34.60;;;;;;6095877;28;80311;-68
2022/04/05 05:45:12;;;;;;;4.35;1.10;;;23.40;34.30;;;;;;6088254;28;80380;-69
2022/04/05 05:48:12;;;;;;;10.30;1.42;;;23.40;34.60;;;;;;6105467;28;80762;-68
2022/04/05 05:51:13;;;;;;;3.30;1.20;;;23.40;34.90;;;;;;6111638;28;80798;-68
2022/04/05 05:54:13;;;;;;;1.30;1.20;;;23.30;34.70;;;;;;6111745;28;80479;-69
2022/04/05 05:57:14;;;;;;;1.75;1.15;;;23.30;34.80;;;;;;6111462;28;80657;-68
2022/04/05 06:00:21;;;;;;;1.27;1.17;;;23.30;34.70;;;;;;6111934;28;80386;-68
2022/04/05 06:03:21;;;;;;;1.23;1.05;;;23.30;35.00;;;;;;6111424;28;80347;-68
2022/04/05 06:06:22;;;;;;;1.48;0.90;;;23.30;35.20;;;;;;6111870;28;80748;-67
2022/04/05 06:09:22;;;;;;;1.50;1.17;;;23.30;35.20;;;;;;6111916;28;80433;-67
2022/04/05 06:12:23;;;;;;;1.83;1.40;;;23.30;35.30;;;;;;6111411;28;80589;-68
2022/04/05 06:15:25;;;;;;;1.83;1.45;;;23.30;35.10;;;;;;6111510;28;81839;-74
2022/04/05 06:18:25;;;;;;;2.70;1.67;;;23.30;35.10;;;;;;6111153;28;80349;-69
2022/04/05 06:21:26;;;;;;;4.53;1.60;;;23.20;34.70;;;;;;6111163;28;80792;-69
2022/04/05 06:24:26;;;;;;;1.60;1.48;;;23.20;34.70;;;;;;6110833;28;81287;-69
2022/04/05 06:27:27;;;;;;;3.08;1.63;;;23.20;34.60;;;;;;6111311;28;81552;-69
2022/04/05 06:30:27;;;;;;;4.95;1.20;;;23.20;34.50;;;;;;6111671;28;80392;-69
2022/04/05 06:33:28;;;;;;;1.60;1.20;;;23.20;34.40;;;;;;6111065;28;81700;-71
2022/04/05 06:36:28;;;;;;;1.42;0.93;;;23.20;34.50;;;;;;6113402;28;80411;-71
2022/04/05 06:39:29;;;;;;;2.55;1.42;;;23.10;34.60;;;;;;6115459;28;81165;-71
2022/04/05 06:42:30;;;;;;;3.63;1.30;;;23.20;35.40;;;;;;6115021;28;80827;-71
2022/04/05 06:45:30;;;;;;;1.80;1.50;;;23.20;35.30;;;;;;6115174;28;80310;-74
2022/04/05 06:48:31;;;;;;;3.70;1.42;;;23.20;35.40;;;;;;6115142;28;80572;-70
2022/04/05 06:51:31;;;;;;;1.83;1.35;;;23.20;35.30;;;;;;6114835;28;80885;-67
2022/04/05 06:54:32;;;;;;;1.52;1.42;;;23.20;35.30;;;;;;6114974;28;80422;-69
2022/04/05 06:57:32;;;;;;;2.00;1.13;;;23.10;35.00;;;;;;6097109;28;80477;-67
2022/04/05 07:00:33;;;;;;;2.85;1.00;;;23.10;35.10;;;;;;6113416;28;84371;-67
2022/04/05 07:03:34;;;;;;;3.63;1.10;;;23.10;34.90;;;;;;6115123;28;80614;-71
2022/04/05 07:06:35;;;;;;;2.15;1.30;;;23.10;34.90;;;;;;6115237;28;81114;-71
2022/04/05 07:09:37;;;;;;;2.15;1.27;;;23.10;34.90;;;;;;6114724;28;80757;-67
2022/04/05 07:12:38;;;;;;;2.17;1.25;;;23.10;34.90;;;;;;6115379;28;80821;-69
2022/04/05 07:15:38;;;;;;;3.00;1.33;;;23.00;35.00;;;;;;6114841;28;81380;-71
2022/04/05 07:18:39;;;;;;;3.50;1.52;;;23.00;35.10;;;;;;6115161;28;80530;-70
2022/04/05 07:21:39;;;;;;;2.22;1.10;;;23.00;35.50;;;;;;6115278;28;81022;-68
2022/04/05 07:24:40;;;;;;;7.28;1.25;;;23.00;35.70;;;;;;6115177;28;80400;-74
2022/04/05 07:27:40;;;;;;;2.28;1.20;;;23.00;35.70;;;;;;6114680;28;80204;-70
2022/04/05 07:30:41;;;;;;;2.47;1.50;;;23.00;35.60;;;;;;6114360;28;80701;-68
2022/04/05 07:33:41;;;;;;;1.52;1.27;;;23.00;35.60;;;;;;6112651;28;81545;-69
2022/04/05 07:36:42;;;;;;;3.65;1.25;;;23.10;35.70;;;;;;6114817;28;80562;-68
2022/04/05 07:39:42;;;;;;;4.25;1.52;;;23.10;35.70;;;;;;6114704;28;80311;-69
2022/04/05 07:42:43;;;;;;;3.03;1.45;;;23.10;35.90;;;;;;6119760;28;80302;-69
2022/04/05 07:45:44;;;;;;;5.65;1.83;;;23.10;35.70;;;;;;6119849;28;80452;-68
2022/04/05 07:48:47;;;;;;;3.15;1.30;;;23.10;35.70;;;;;;6113323;28;80462;-68
2022/04/05 07:51:47;;;;;;;1.90;1.50;;;23.20;35.70;;;;;;6114161;28;80533;-70
2022/04/05 07:54:48;;;;;;;2.30;1.85;;;23.20;35.60;;;;;;6096700;28;81826;-70
2022/04/05 07:57:49;;;;;;;1.45;1.35;;;23.20;35.50;;;;;;6114440;28;80231;-72
2022/04/05 08:00:49;;;;;;;3.25;1.40;;;23.20;35.40;;;;;;6114174;28;80648;-70
2022/04/05 08:03:51;;;;;;;2.63;1.55;;;23.30;35.40;;;;;;6113675;28;80450;-71
2022/04/05 08:06:51;;;;;;;2.53;1.30;;;23.30;35.40;;;;;;6113796;28;80429;-70
2022/04/05 08:09:52;;;;;;;2.85;1.60;;;23.30;35.30;;;;;;6112371;28;80628;-72
2022/04/05 08:12:52;;;;;;;3.72;1.38;;;23.30;35.50;;;;;;6112794;28;80892;-73
2022/04/05 08:15:53;;;;;;;2.65;1.10;;;23.30;35.10;;;;;;6114084;28;80275;-74
2022/04/05 08:18:54;;;;;;;36.17;17.42;;;23.30;35.30;;;;;;6114584;28;80412;-74
2022/04/05 08:21:55;;;;;;;104.88;47.35;;;23.40;35.40;;;;;;6110634;28;83166;-73
2022/04/05 08:24:55;;;;;;;200.98;88.28;;;23.40;35.30;;;;;;6110621;28;83212;-72
2022/04/05 08:27:57;;;;;;;155.60;66.38;;;23.50;35.40;;;;;;6110259;28;83291;-75
2022/04/05 08:30:57;;;;;;;200.25;87.82;;;23.50;35.60;;;;;;6110670;28;87164;-73
2022/04/05 08:33:58;;;;;;;266.80;117.25;;;23.50;35.50;;;;;;6111200;28;83094;-72
2022/04/05 08:36:59;;;;;;;275.65;120.63;;;23.50;35.50;;;;;;6107313;28;85868;-72
2022/04/05 08:40:00;;;;;;;228.25;99.20;;;23.50;35.60;;;;;;6106942;28;85810;-71
2022/04/05 08:43:00;;;;;;;188.13;84.38;;;23.60;35.60;;;;;;6101379;28;84574;-67
2022/04/05 08:46:01;;;;;;;180.75;77.63;;;23.60;35.70;;;;;;6109605;28;82878;-71
2022/04/05 08:49:01;;;;;;;152.35;66.95;;;23.60;35.50;;;;;;6110002;28;83198;-76
2022/04/05 08:52:02;;;;;;;143.68;63.05;;;23.60;35.80;;;;;;6107767;28;84537;-71
2022/04/05 08:55:02;;;;;;;122.53;55.08;;;23.60;36.10;;;;;;6108866;28;83523;-71
2022/04/05 08:58:03;;;;;;;115.22;48.63;;;23.60;35.40;;;;;;6106883;28;83524;-71
2022/04/05 09:01:03;;;;;;;114.35;47.17;;;23.60;35.70;;;;;;6104816;28;83793;-70
2022/04/05 09:04:04;;;;;;;104.80;44.35;;;23.60;35.50;;;;;;6108208;28;83492;-74
2022/04/05 09:07:04;;;;;;;91.32;37.13;;;23.60;35.40;;;;;;6105683;28;83148;-73
2022/04/05 09:10:05;;;;;;;78.15;35.50;;;23.60;35.40;;;;;;6092843;28;84265;-72
2022/04/05 09:13:05;;;;;;;81.78;34.47;;;23.50;35.70;;;;;;6110495;28;84488;-73
2022/04/05 09:16:08;;;;;;;76.57;31.80;;;23.60;35.60;;;;;;6107046;28;83847;-73
2022/04/05 09:19:08;;;;;;;61.22;29.60;;;23.60;35.60;;;;;;6108668;28;82974;-74
2022/04/05 09:22:09;;;;;;;56.47;27.08;;;23.60;35.40;;;;;;6104044;28;83462;-74
2022/04/05 09:25:10;;;;;;;58.33;26.05;;;23.60;35.90;;;;;;6109313;28;83173;-75
2022/04/05 09:28:10;;;;;;;64.32;24.25;;;23.50;35.80;;;;;;6108817;28;82764;-76
2022/04/05 09:31:11;;;;;;;45.05;21.88;;;23.50;35.80;;;;;;6120392;28;83242;-75
2022/04/05 09:34:21;;;;;;;43.58;20.10;;;23.60;36.20;;;;;;6109403;28;83150;-74
2022/04/05 09:37:22;;;;;;;39.22;18.05;;;23.50;36.00;;;;;;6117620;28;83167;-75
2022/04/05 09:40:22;;;;;;;39.55;17.17;;;23.60;35.80;;;;;;6109433;28;83188;-74
2022/04/05 09:43:23;;;;;;;36.40;15.93;;;23.60;35.80;;;;;;6098857;28;84130;-74
2022/04/05 09:46:23;;;;;;;37.67;17.13;;;23.60;35.90;;;;;;6120757;28;83079;-73
2022/04/05 09:49:24;;;;;;;33.88;15.45;;;23.60;36.10;;;;;;6108994;28;83336;-73
2022/04/05 09:52:25;;;;;;;32.15;15.20;;;23.50;36.00;;;;;;6108539;28;84410;-74
2022/04/05 09:55:25;;;;;;;30.05;14.75;;;23.60;36.10;;;;;;6105184;28;83143;-73
2022/04/05 09:58:26;;;;;;;22.42;11.55;;;23.50;36.30;;;;;;6103670;28;85009;-73
2022/04/05 10:01:27;;;;;;;24.15;11.32;;;23.50;36.40;;;;;;6108420;28;83362;-75
2022/04/05 10:04:29;;;;;;;20.23;11.05;;;23.50;36.40;;;;;;6108713;28;84395;-73
2022/04/05 10:07:30;;;;;;;21.73;10.85;;;23.50;36.30;;;;;;6106879;28;83163;-72
2022/04/05 10:10:30;;;;;;;22.65;10.73;;;23.50;36.60;;;;;;6107597;28;85501;-72
2022/04/05 10:13:31;;;;;;;21.38;10.38;;;23.50;36.80;;;;;;6108420;28;83198;-73
2022/04/05 10:16:31;;;;;;;19.02;9.35;;;23.50;37.20;;;;;;6107478;28;84187;-73
2022/04/05 10:19:32;;;;;;;19.52;8.85;;;23.50;37.70;;;;;;6111104;28;84388;-73
2022/04/05 10:22:33;;;;;;;21.08;8.77;;;23.50;37.80;;;;;;6111728;28;81507;-74
2022/04/05 10:25:34;;;;;;;19.20;8.75;;;23.50;38.60;;;;;;6111708;28;80419;-73
2022/04/05 10:28:35;;;;;;;19.42;8.70;;;23.50;39.30;;;;;;6111953;28;81707;-74
2022/04/05 10:31:35;;;;;;;17.40;8.13;;;23.50;39.50;;;;;;6116951;28;80388;-75
2022/04/05 10:34:36;;;;;;;23.45;7.63;;;23.50;39.40;;;;;;6112573;28;81364;-73
2022/04/05 10:37:36;;;;;;;20.27;7.95;;;23.50;39.80;;;;;;6111291;28;81153;-73
2022/04/05 10:40:37;;;;;;;21.90;7.72;;;23.50;39.90;;;;;;6124882;28;80595;-74
2022/04/05 10:43:39;;;;;;;15.95;7.85;;;23.50;40.20;;;;;;6122569;28;80678;-73
2022/04/05 10:46:39;;;;;;;16.67;7.53;;;23.50;40.20;;;;;;6109104;28;82227;-73
2022/04/05 10:49:41;;;;;;;18.40;7.05;;;23.50;40.00;;;;;;6110954;28;80465;-73
2022/04/05 10:52:41;;;;;;;11.77;6.28;;;23.60;39.90;;;;;;6110718;28;81388;-72
2022/04/05 10:55:42;;;;;;;13.90;6.32;;;23.60;39.80;;;;;;6111758;28;80411;-72
2022/04/05 10:58:43;;;;;;;13.85;6.60;;;23.60;39.50;;;;;;6105988;28;80639;-73
2022/04/05 11:01:44;;;;;;;19.48;6.85;;;23.60;39.90;;;;;;6109752;28;80529;-72
2022/04/05 11:04:45;;;;;;;19.70;5.90;;;23.60;39.40;;;;;;6110545;28;81502;-72
2022/04/05 11:07:45;;;;;;;12.65;5.68;;;23.60;39.00;;;;;;6110202;28;81384;-72
2022/04/05 11:10:46;;;;;;;11.98;5.22;;;23.50;38.90;;;;;;6103604;28;80705;-73
2022/04/05 11:13:49;;;;;;;11.27;4.88;;;23.50;39.20;;;;;;6105463;28;84182;-73
2022/04/05 11:16:50;;;;;;;9.23;4.90;;;23.50;39.60;;;;;;6109610;28;80617;-72
2022/04/05 11:19:51;;;;;;;13.32;5.32;;;23.50;40.00;;;;;;6110543;28;80181;-74
2022/04/05 11:22:51;;;;;;;14.05;4.65;;;23.50;41.40;;;;;;6111262;28;80391;-73
2022/04/05 11:25:52;;;;;;;14.60;4.90;;;23.50;41.70;;;;;;6112067;28;80552;-73
2022/04/05 11:28:52;;;;;;;10.27;4.82;;;23.40;41.80;;;;;;6115625;28;80697;-73
2022/04/05 11:31:53;;;;;;;10.65;4.95;;;23.40;41.20;;;;;;6113793;28;80009;-72
2022/04/05 11:34:53;;;;;;;8.48;4.40;;;23.40;41.60;;;;;;6113483;28;82129;-73
2022/04/05 11:37:54;;;;;;;9.73;4.13;;;23.40;41.40;;;;;;6114921;28;80565;-72
2022/04/05 11:40:54;;;;;;;10.98;4.30;;;23.40;40.90;;;;;;6114454;28;80917;-72
2022/04/05 11:43:55;;;;;;;7.57;3.58;;;23.40;41.10;;;;;;6113984;28;80564;-73
2022/04/05 11:46:55;;;;;;;7.70;4.20;;;23.40;40.70;;;;;;6114391;28;81337;-73
2022/04/05 11:49:56;;;;;;;9.82;4.05;;;23.30;40.60;;;;;;6114504;28;80086;-73
2022/04/05 11:52:56;;;;;;;8.02;4.05;;;23.30;40.50;;;;;;6114510;28;80779;-73
2022/04/05 11:56:00;;;;;;;7.82;3.83;;;23.30;40.60;;;;;;6097636;28;80301;-72
2022/04/05 11:59:01;;;;;;;5.15;3.63;;;23.30;40.20;;;;;;6105035;28;81799;-78
2022/04/05 12:02:01;;;;;;;9.98;4.18;;;23.40;40.90;;;;;;6089588;28;80145;-72
2022/04/05 12:05:02;;;;;;;7.00;3.72;;;23.30;39.80;;;;;;6101645;28;80951;-72
2022/04/05 12:08:02;;;;;;;8.38;4.40;;;23.30;39.60;;;;;;6107379;28;80812;-71
2022/04/05 12:11:04;;;;;;;9.68;3.10;;;23.30;39.40;;;;;;6105190;28;80286;-72
2022/04/05 12:14:05;;;;;;;8.07;4.07;;;23.20;39.30;;;;;;6091585;28;81731;-72
2022/04/05 12:17:05;;;;;;;9.20;3.83;;;23.30;39.20;;;;;;6108955;28;81385;-72
2022/04/05 12:20:07;;;;;;;5.93;3.35;;;23.30;39.10;;;;;;6098874;28;80470;-72
2022/04/05 12:23:08;;;;;;;5.03;2.92;;;23.30;39.20;;;;;;6113833;28;81605;-73
2022/04/05 12:26:09;;;;;;;4.57;3.17;;;23.30;38.80;;;;;;6119185;28;80391;-73
2022/04/05 12:29:09;;;;;;;5.90;3.42;;;23.30;38.50;;;;;;6104473;28;80328;-72
2022/04/05 12:32:10;;;;;;;6.70;2.97;;;23.30;38.40;;;;;;6095118;28;80722;-71
2022/04/05 12:35:13;;;;;;;8.20;3.28;;;23.30;38.20;;;;;;6111274;28;81462;-73
2022/04/05 12:38:14;;;;;;;6.07;3.03;;;23.30;37.90;;;;;;6111800;28;80801;-73
2022/04/05 12:41:15;;;;;;;3.20;2.45;;;23.40;37.80;;;;;;6109440;28;80390;-73
2022/04/05 12:44:16;;;;;;;6.53;2.80;;;23.40;37.70;;;;;;6110834;28;80971;-73
2022/04/05 12:47:16;;;;;;;4.30;2.80;;;23.40;37.50;;;;;;6110442;28;81547;-71
2022/04/05 12:50:16;;;;;;;4.95;2.80;;;23.40;37.40;;;;;;6111481;28;80838;-72
2022/04/05 12:53:17;;;;;;;3.55;2.45;;;23.40;37.30;;;;;;6112028;28;80577;-75
2022/04/05 12:56:18;;;;;;;4.65;2.72;;;23.40;37.40;;;;;;6100505;28;80328;-74
2022/04/05 12:59:18;;;;;;;7.32;2.67;;;23.50;37.30;;;;;;6097659;28;81368;-74
2022/04/05 13:02:19;;;;;;;4.72;2.45;;;23.50;37.40;;;;;;6103175;28;80958;-72
2022/04/05 13:08:38;;;;;;;5.47;2.72;;;23.50;37.50;;;;;;6099313;28;81039;-72
2022/04/05 13:11:39;;;;;;;4.43;2.72;;;23.60;37.50;;;;;;6097748;28;81989;-72
2022/04/05 13:14:39;;;;;;;4.13;2.60;;;23.60;37.60;;;;;;6108955;28;80514;-74
2022/04/05 13:17:40;;;;;;;2.92;2.10;;;23.60;37.50;;;;;;6095441;28;80382;-75
2022/04/05 13:20:40;;;;;;;3.42;2.47;;;23.60;37.40;;;;;;6112107;28;80718;-75
2022/04/05 13:23:41;;;;;;;3.50;2.10;;;23.60;37.30;;;;;;6137096;28;80472;-77
2022/04/05 13:26:42;;;;;;;137.40;58.53;;;23.60;37.40;;;;;;6116923;28;80356;-78
2022/04/05 13:29:42;;;;;;;181.73;82.03;;;23.60;37.40;;;;;;6099419;28;83052;-73
2022/04/05 13:32:43;;;;;;;196.35;91.22;;;23.60;37.30;;;;;;6085674;28;82889;-72
2022/04/05 13:35:44;;;;;;;177.95;80.18;;;23.60;37.40;;;;;;6085517;28;83775;-71
2022/04/05 13:38:44;;;;;;;161.57;69.07;;;23.60;37.40;;;;;;6084913;28;84016;-66
2022/04/05 13:41:47;;;;;;;143.25;63.08;;;23.60;37.50;;;;;;6086569;28;82901;-77
2022/04/05 13:44:48;;;;;;;129.73;58.90;;;23.60;37.30;;;;;;6096864;28;83165;-69
2022/04/05 13:47:48;;;;;;;228.52;98.35;;;23.60;37.20;;;;;;6107995;28;82855;-70
2022/04/05 13:50:49;;;;;;;254.18;117.40;;;23.50;37.30;;;;;;6108933;28;83388;-69
2022/04/05 13:53:50;;;;;;;243.48;109.75;;;23.60;37.30;;;;;;6105405;28;85518;-69
2022/04/05 13:56:50;;;;;;;219.95;96.22;;;23.60;37.40;;;;;;6105482;28;85626;-68
2022/04/05 13:59:51;;;;;;;193.82;83.30;;;23.60;37.30;;;;;;6107019;28;88247;-70
2022/04/05 14:02:52;;;;;;;169.70;79.90;;;23.60;37.50;;;;;;6096617;28;83409;-71
2022/04/05 14:05:53;;;;;;;157.65;72.55;;;23.60;37.40;;;;;;6102758;28;83450;-73
2022/04/05 14:08:54;;;;;;;143.02;64.78;;;23.60;37.60;;;;;;6088772;28;83036;-69
2022/04/05 14:11:55;;;;;;;128.20;59.13;;;23.60;37.50;;;;;;6101298;28;84743;-72
2022/04/05 14:14:55;;;;;;;117.25;54.58;;;23.50;37.50;;;;;;6099624;28;83179;-72
2022/04/05 14:17:56;;;;;;;108.63;50.33;;;23.50;38.00;;;;;;6101809;28;83389;-73
2022/04/05 14:20:56;;;;;;;101.45;47.92;;;23.50;37.80;;;;;;6085090;28;83154;-70
2022/04/05 14:23:57;;;;;;;93.93;43.70;;;23.60;38.20;;;;;;6105931;28;83114;-73
2022/04/05 14:26:57;;;;;;;75.85;35.88;;;23.60;38.00;;;;;;6087539;28;83445;-71
2022/04/05 14:29:58;;;;;;;72.65;33.63;;;23.60;37.90;;;;;;6108985;28;83040;-71
2022/04/05 14:32:58;;;;;;;74.00;33.47;;;23.50;37.90;;;;;;6107816;28;84283;-72
2022/04/05 14:35:59;;;;;;;76.25;33.33;;;23.50;38.30;;;;;;6107110;28;84297;-77
2022/04/05 14:39:01;;;;;;;66.97;30.75;;;23.60;38.50;;;;;;6107124;28;84179;-76
2022/04/05 14:42:02;;;;;;;68.65;28.40;;;23.60;38.30;;;;;;6106205;28;84647;-67
2022/04/05 14:45:02;;;;;;;63.03;27.73;;;23.60;38.50;;;;;;6103497;28;84189;-72
2022/04/05 14:48:03;;;;;;;46.35;23.05;;;23.60;38.80;;;;;;6104936;28;83428;-70
2022/04/05 14:51:04;;;;;;;54.85;22.00;;;23.60;39.30;;;;;;6106475;28;84427;-71
2022/04/05 14:54:04;;;;;;;51.10;22.33;;;23.60;39.70;;;;;;6098512;28;83861;-69
2022/04/05 14:57:06;;;;;;;41.42;20.42;;;23.60;40.00;;;;;;6108740;28;84062;-71
2022/04/05 15:00:07;;;;;;;43.72;20.58;;;23.60;40.70;;;;;;6103816;28;86538;-70
2022/04/05 15:03:08;;;;;;;56.85;21.55;;;23.60;40.40;;;;;;6101377;28;83223;-70
2022/04/05 15:06:08;;;;;;;39.22;18.38;;;23.60;40.70;;;;;;6100438;28;84594;-80
2022/04/05 15:09:09;;;;;;;35.95;17.90;;;23.60;41.00;;;;;;6098800;28;83587;-78
2022/04/05 15:12:09;;;;;;;37.00;17.35;;;23.60;40.80;;;;;;6108363;28;83002;-75
2022/04/05 15:15:11;;;;;;;38.45;16.80;;;23.60;40.50;;;;;;6112279;28;84318;-78
2022/04/05 15:18:11;;;;;;;36.25;16.88;;;23.60;40.20;;;;;;6107334;28;84293;-80
2022/04/05 15:21:13;;;;;;;31.30;14.15;;;23.60;40.30;;;;;;6109732;28;84116;-76
2022/04/05 15:24:14;;;;;;;31.63;14.35;;;23.60;40.10;;;;;;6110064;28;83097;-78
2022/04/05 15:27:14;;;;;;;28.45;14.05;;;23.60;40.10;;;;;;6110926;28;83600;-76
2022/04/05 15:30:15;;;;;;;26.52;14.25;;;23.60;39.80;;;;;;6110423;28;83282;-80
2022/04/05 15:33:15;;;;;;;23.58;12.18;;;23.60;40.00;;;;;;6104769;28;84465;-74